Time;durP1;ratioP1;P1;durP2;ratioP2;P2;SDS_P1;SDS_P2;PMS_P1;PMS_P2;Temp;Humidity;BMP_temperature;BMP_pressure;BME280_temperature;BME280_humidity;BME280_pressure;Samples;Min_cycle;Max_cycle;Signal;HPM_P1;HPM_P2
2024/01/13 00:00:04;;;;;;;27.85;6.63;;;2.80;99.90;;;;;;5076386;28;20110;-58
2024/01/13 00:02:30;;;;;;;18.33;5.63;;;3.50;99.90;;;;;;5082719;28;20053;-58
2024/01/13 00:04:56;;;;;;;20.20;5.95;;;3.60;99.90;;;;;;5089286;28;20044;-59
2024/01/13 00:07:21;;;;;;;18.25;6.30;;;3.30;99.90;;;;;;5089531;28;20081;-59
2024/01/13 00:09:47;;;;;;;18.70;6.30;;;3.40;99.90;;;;;;5098330;28;20035;-58
2024/01/13 00:12:13;;;;;;;17.73;5.57;;;2.60;99.90;;;;;;5049642;28;20092;-59
2024/01/13 00:14:38;;;;;;;20.13;6.07;;;2.90;99.90;;;;;;5051396;28;20034;-59
2024/01/13 00:17:04;;;;;;;18.77;5.97;;;3.50;99.90;;;;;;5057368;28;20548;-59
2024/01/13 00:19:30;;;;;;;14.88;5.20;;;3.60;99.90;;;;;;5006201;28;20490;-59
2024/01/13 00:21:55;;;;;;;21.50;6.22;;;2.80;99.90;;;;;;5057574;28;20458;-59
2024/01/13 00:24:21;;;;;;;18.02;6.22;;;2.70;99.90;;;;;;5074235;28;20568;-59
2024/01/13 00:26:46;;;;;;;18.35;6.28;;;2.80;99.90;;;;;;5080395;28;20035;-60
2024/01/13 00:29:12;;;;;;;19.27;6.22;;;3.10;99.90;;;;;;5076511;28;20474;-59
2024/01/13 00:31:38;;;;;;;16.60;5.57;;;2.60;99.90;;;;;;5085873;28;20045;-59
2024/01/13 00:34:03;;;;;;;16.95;6.28;;;3.30;99.90;;;;;;5057443;28;20082;-58
2024/01/13 00:36:29;;;;;;;23.55;7.07;;;2.80;99.90;;;;;;5057288;28;20517;-59
2024/01/13 00:38:55;;;;;;;21.63;7.78;;;2.60;99.90;;;;;;5051631;28;20036;-58
2024/01/13 00:41:20;;;;;;;19.58;6.30;;;3.50;99.90;;;;;;5067644;28;20037;-59
2024/01/13 00:43:47;;;;;;;20.20;7.45;;;2.90;99.90;;;;;;5059452;28;20192;-58
2024/01/13 00:46:13;;;;;;;20.88;6.63;;;3.50;99.90;;;;;;5003464;28;20109;-58
2024/01/13 00:48:39;;;;;;;19.80;7.40;;;2.80;99.90;;;;;;5024788;28;20038;-59
2024/01/13 00:51:07;;;;;;;13.43;6.38;;;3.30;99.90;;;;;;5066845;28;20043;-59
2024/01/13 00:53:33;;;;;;;15.23;6.25;;;3.40;99.90;;;;;;5077342;28;20481;-59
2024/01/13 00:55:58;;;;;;;16.40;6.85;;;2.70;99.90;;;;;;5086860;28;20034;-59
2024/01/13 00:58:24;;;;;;;26.38;8.35;;;2.50;99.90;;;;;;5065574;28;20044;-58
2024/01/13 01:00:50;;;;;;;37.10;8.77;;;3.40;99.90;;;;;;5085332;28;20044;-59
2024/01/13 01:03:15;;;;;;;30.17;9.60;;;3.00;99.90;;;;;;5075547;28;20134;-58
2024/01/13 01:05:41;;;;;;;29.55;8.55;;;2.40;99.90;;;;;;4993407;28;20050;-59
2024/01/13 01:08:07;;;;;;;22.48;8.20;;;3.00;99.90;;;;;;4996145;28;20045;-59
2024/01/13 01:10:32;;;;;;;22.30;7.75;;;2.60;99.90;;;;;;5061314;28;20063;-59
2024/01/13 01:12:58;;;;;;;25.40;8.40;;;2.80;99.90;;;;;;5063127;28;20055;-60
2024/01/13 01:15:24;;;;;;;25.65;9.18;;;2.90;99.90;;;;;;5082266;28;20031;-59
2024/01/13 01:17:49;;;;;;;26.13;8.77;;;3.00;99.90;;;;;;5017462;28;20103;-59
2024/01/13 01:20:15;;;;;;;22.90;8.18;;;3.30;99.90;;;;;;5075020;28;20393;-58
2024/01/13 01:22:41;;;;;;;30.98;9.25;;;2.60;99.90;;;;;;5066933;28;20038;-59
2024/01/13 01:25:06;;;;;;;23.75;8.57;;;3.60;99.90;;;;;;5057362;28;20124;-58
2024/01/13 01:27:32;;;;;;;22.25;8.18;;;3.20;99.90;;;;;;5055071;28;20443;-59
2024/01/13 01:29:58;;;;;;;23.33;8.27;;;2.60;99.90;;;;;;5071307;28;20062;-59
2024/01/13 01:32:23;;;;;;;17.35;7.60;;;2.60;99.90;;;;;;5079733;28;20040;-58
2024/01/13 01:34:49;;;;;;;20.40;8.57;;;3.60;99.90;;;;;;5086712;28;20389;-59
2024/01/13 01:37:15;;;;;;;24.23;7.93;;;2.60;99.90;;;;;;5086787;28;20042;-59
2024/01/13 01:39:40;;;;;;;25.00;8.65;;;2.70;99.90;;;;;;5065203;28;20137;-59
2024/01/13 01:42:06;;;;;;;27.20;8.57;;;3.00;99.90;;;;;;5072041;28;20045;-59
2024/01/13 01:44:32;;;;;;;26.02;8.63;;;2.60;99.90;;;;;;5076153;28;20115;-59
2024/01/13 01:47:00;;;;;;;25.83;8.63;;;3.00;99.90;;;;;;5076758;28;20382;-59
2024/01/13 01:49:26;;;;;;;22.63;8.00;;;3.60;99.90;;;;;;5094030;28;20059;-59
2024/01/13 01:51:52;;;;;;;24.17;8.90;;;3.60;99.90;;;;;;5016581;28;20073;-59
2024/01/13 01:54:18;;;;;;;32.58;9.80;;;2.70;99.90;;;;;;5078374;28;20053;-59
2024/01/13 01:56:44;;;;;;;25.33;7.60;;;3.50;99.90;;;;;;5090916;28;20092;-58
2024/01/13 01:59:10;;;;;;;27.38;9.13;;;3.20;99.90;;;;;;5083053;28;20393;-58
2024/01/13 02:01:36;;;;;;;28.75;9.40;;;2.70;99.90;;;;;;5081534;28;20039;-59
2024/01/13 02:04:03;;;;;;;31.15;9.90;;;2.60;99.90;;;;;;5064030;28;20051;-58
2024/01/13 02:06:30;;;;;;;37.40;9.30;;;3.10;99.90;;;;;;5081157;28;20039;-59
2024/01/13 02:08:56;;;;;;;47.88;10.25;;;3.00;99.90;;;;;;5093959;28;20403;-59
2024/01/13 02:11:22;;;;;;;31.38;8.75;;;3.40;99.90;;;;;;5095832;28;20028;-59
2024/01/13 02:13:49;;;;;;;35.88;9.95;;;2.70;99.90;;;;;;5057799;28;20198;-59
2024/01/13 02:16:15;;;;;;;39.08;9.80;;;2.90;99.90;;;;;;5059938;28;20425;-58
2024/01/13 02:18:42;;;;;;;44.35;10.10;;;3.50;99.90;;;;;;5012197;28;20038;-59
2024/01/13 02:21:08;;;;;;;37.97;9.85;;;3.30;99.90;;;;;;5072682;28;20074;-60
2024/01/13 02:23:34;;;;;;;40.38;9.32;;;2.60;99.90;;;;;;5072207;28;20092;-59
2024/01/13 02:26:00;;;;;;;34.85;10.07;;;3.00;99.90;;;;;;5085248;28;20427;-59
2024/01/13 02:28:25;;;;;;;36.40;9.88;;;3.40;99.90;;;;;;5061456;28;20121;-60
2024/01/13 02:30:51;;;;;;;33.28;9.40;;;3.50;99.90;;;;;;5094813;28;20070;-60
2024/01/13 02:33:17;;;;;;;30.70;9.27;;;3.50;99.90;;;;;;5071025;28;20099;-59
2024/01/13 02:35:42;;;;;;;26.08;9.70;;;3.20;99.90;;;;;;5045602;28;20049;-61
2024/01/13 02:38:08;;;;;;;28.70;9.52;;;3.10;99.90;;;;;;5059441;28;20102;-59
2024/01/13 02:40:34;;;;;;;44.03;10.23;;;3.40;99.90;;;;;;5069085;28;20024;-59
2024/01/13 02:42:59;;;;;;;68.32;11.70;;;2.80;99.90;;;;;;5072011;28;20039;-59
2024/01/13 02:45:25;;;;;;;66.55;11.45;;;2.80;99.90;;;;;;5079919;28;20114;-59
2024/01/13 02:48:02;;;;;;;68.60;11.18;;;3.30;99.90;;;;;;5085201;28;20028;-59
2024/01/13 02:50:28;;;;;;;92.65;12.20;;;2.40;99.90;;;;;;5092731;28;20542;-59
2024/01/13 02:52:55;;;;;;;66.05;10.23;;;3.30;99.90;;;;;;5093028;28;20040;-58
2024/01/13 02:55:20;;;;;;;93.72;11.63;;;2.50;99.90;;;;;;5058420;28;20037;-58
2024/01/13 02:57:46;;;;;;;63.78;10.52;;;3.30;99.90;;;;;;5061325;28;20062;-59
2024/01/13 03:00:13;;;;;;;59.33;11.02;;;2.50;99.90;;;;;;5070093;28;20113;-58
2024/01/13 03:02:40;;;;;;;39.22;9.50;;;3.20;99.90;;;;;;5068030;28;20050;-59
2024/01/13 03:05:09;;;;;;;37.92;10.35;;;3.30;99.90;;;;;;5011027;28;20042;-58
2024/01/13 03:07:34;;;;;;;38.80;10.55;;;2.50;99.90;;;;;;5070898;28;20043;-58
2024/01/13 03:10:00;;;;;;;34.30;9.75;;;3.20;99.90;;;;;;5079429;28;20267;-59
2024/01/13 03:12:26;;;;;;;34.15;9.00;;;2.70;99.90;;;;;;5076855;28;20062;-58
2024/01/13 03:14:52;;;;;;;44.03;9.35;;;2.70;99.90;;;;;;5073194;28;20035;-60
2024/01/13 03:17:17;;;;;;;47.20;8.63;;;3.20;99.90;;;;;;5055171;28;20485;-59
2024/01/13 03:19:43;;;;;;;66.60;9.68;;;3.20;99.90;;;;;;5065064;28;20517;-59
2024/01/13 03:22:09;;;;;;;54.40;10.32;;;2.90;99.90;;;;;;5074487;28;20930;-58
2024/01/13 03:24:34;;;;;;;106.15;12.10;;;3.50;99.90;;;;;;5085173;28;20046;-59
2024/01/13 03:27:00;;;;;;;74.47;10.32;;;2.40;99.90;;;;;;5018874;28;20160;-59
2024/01/13 03:29:26;;;;;;;79.32;9.57;;;2.50;99.90;;;;;;5100016;28;20498;-59
2024/01/13 03:31:51;;;;;;;58.00;8.38;;;3.30;99.90;;;;;;5101640;28;20031;-59
2024/01/13 03:34:17;;;;;;;45.33;7.60;;;3.40;99.90;;;;;;5060397;28;20206;-59
2024/01/13 03:36:43;;;;;;;30.83;7.88;;;3.00;99.90;;;;;;5072402;28;20038;-59
2024/01/13 03:39:09;;;;;;;40.78;7.20;;;2.60;99.90;;;;;;5087000;28;20039;-59
2024/01/13 03:41:35;;;;;;;26.15;7.00;;;3.20;99.90;;;;;;5082018;28;20042;-59
2024/01/13 03:44:01;;;;;;;27.15;6.70;;;3.30;99.90;;;;;;5056963;28;20046;-59
2024/01/13 03:46:27;;;;;;;26.67;6.72;;;2.80;99.90;;;;;;5064180;28;20038;-60
2024/01/13 03:48:52;;;;;;;33.47;7.68;;;3.40;99.90;;;;;;5075307;28;20110;-59
2024/01/13 03:51:18;;;;;;;33.75;7.47;;;3.00;99.90;;;;;;5076461;28;20038;-59
2024/01/13 03:53:44;;;;;;;30.67;7.90;;;3.40;99.90;;;;;;5083506;28;20044;-58
2024/01/13 03:56:10;;;;;;;29.20;7.70;;;3.30;99.90;;;;;;5026025;28;20043;-59
2024/01/13 03:58:36;;;;;;;28.42;7.57;;;2.90;99.90;;;;;;5069454;28;20483;-58
2024/01/13 04:01:05;;;;;;;29.55;7.20;;;3.30;99.90;;;;;;5057205;28;20050;-59
2024/01/13 04:03:31;;;;;;;26.05;7.30;;;2.80;99.90;;;;;;5054402;28;20041;-59
2024/01/13 04:05:58;;;;;;;25.90;8.23;;;3.50;99.90;;;;;;5058923;28;20044;-59
2024/01/13 04:08:24;;;;;;;24.35;7.43;;;3.50;99.90;;;;;;5003458;28;20039;-59
2024/01/13 04:10:50;;;;;;;19.73;6.60;;;2.70;99.90;;;;;;5083744;28;20043;-59
2024/01/13 04:13:16;;;;;;;25.55;6.78;;;2.70;99.90;;;;;;5088313;28;20151;-58
2024/01/13 04:15:42;;;;;;;16.95;6.28;;;3.60;99.90;;;;;;5076097;28;20814;-59
2024/01/13 04:18:08;;;;;;;15.00;5.65;;;2.80;99.90;;;;;;5053509;28;20103;-59
2024/01/13 04:20:33;;;;;;;16.42;6.05;;;3.60;99.90;;;;;;5064776;28;20032;-59
2024/01/13 04:22:59;;;;;;;19.00;6.53;;;3.40;99.90;;;;;;5083439;28;20078;-59
2024/01/13 04:25:24;;;;;;;23.25;7.07;;;3.50;99.90;;;;;;5090983;28;20035;-59
2024/01/13 04:27:52;;;;;;;22.00;7.20;;;3.30;99.90;;;;;;5097477;28;20367;-59
2024/01/13 04:30:18;;;;;;;23.42;7.80;;;2.90;99.90;;;;;;5078577;28;20061;-59
2024/01/13 04:32:44;;;;;;;19.48;6.95;;;2.90;99.90;;;;;;5063492;28;20046;-59
2024/01/13 04:35:11;;;;;;;18.02;6.35;;;3.00;99.90;;;;;;5052667;28;20128;-58
2024/01/13 04:37:36;;;;;;;15.48;6.10;;;3.40;99.90;;;;;;5013297;28;20474;-59
2024/01/13 04:40:03;;;;;;;25.35;7.60;;;2.90;99.90;;;;;;5083134;28;20119;-59
2024/01/13 04:42:31;;;;;;;24.55;8.07;;;3.60;99.90;;;;;;5063665;28;20282;-59
2024/01/13 04:44:57;;;;;;;21.10;7.50;;;3.50;99.90;;;;;;5047545;28;20101;-59
2024/01/13 04:47:24;;;;;;;23.35;7.82;;;3.20;99.90;;;;;;5062335;28;20074;-59
2024/01/13 04:49:49;;;;;;;25.55;8.13;;;3.10;99.90;;;;;;5071277;28;20043;-58
2024/01/13 04:52:15;;;;;;;22.83;7.93;;;3.60;99.90;;;;;;5090297;28;20431;-59
2024/01/13 04:54:41;;;;;;;24.98;8.02;;;2.70;99.90;;;;;;5091536;28;20035;-59
2024/01/13 04:57:06;;;;;;;19.85;7.10;;;3.50;99.90;;;;;;5064398;28;20554;-59
2024/01/13 04:59:32;;;;;;;20.33;6.95;;;2.80;99.90;;;;;;5065978;28;20498;-59
2024/01/13 05:01:58;;;;;;;15.82;6.28;;;3.50;99.90;;;;;;5080994;28;20035;-59
2024/01/13 05:04:23;;;;;;;18.00;6.63;;;2.70;99.90;;;;;;5070785;28;20031;-59
2024/01/13 05:06:49;;;;;;;19.08;6.32;;;3.00;99.90;;;;;;5097055;28;20093;-59
2024/01/13 05:09:15;;;;;;;22.75;6.20;;;3.60;99.90;;;;;;5092270;28;20508;-59
2024/01/13 05:11:41;;;;;;;23.35;5.95;;;3.30;99.90;;;;;;5057088;28;20031;-59
2024/01/13 05:14:06;;;;;;;27.75;6.75;;;3.30;99.90;;;;;;5059579;28;20048;-59
2024/01/13 05:16:32;;;;;;;22.77;6.55;;;2.70;99.90;;;;;;5070802;28;20034;-58
2024/01/13 05:18:58;;;;;;;21.95;7.00;;;3.00;99.90;;;;;;5081432;28;20059;-60
2024/01/13 05:21:23;;;;;;;21.27;6.38;;;3.60;99.90;;;;;;5096079;28;20077;-59
2024/01/13 05:23:49;;;;;;;20.52;6.35;;;3.00;99.90;;;;;;5023334;28;20048;-59
2024/01/13 05:26:14;;;;;;;21.08;6.22;;;3.60;99.90;;;;;;5012301;28;20123;-60
2024/01/13 05:28:40;;;;;;;17.00;5.97;;;3.50;99.90;;;;;;5010035;28;20065;-59
2024/01/13 05:31:06;;;;;;;17.38;5.47;;;2.90;99.90;;;;;;5067109;28;20035;-59
2024/01/13 05:33:31;;;;;;;11.45;5.03;;;2.80;99.90;;;;;;5073308;28;20039;-59
2024/01/13 05:35:57;;;;;;;15.57;5.75;;;3.60;99.90;;;;;;5074811;28;20059;-59
2024/01/13 05:38:23;;;;;;;12.23;4.97;;;3.60;99.90;;;;;;5078904;28;20532;-58
2024/01/13 05:40:48;;;;;;;14.35;5.07;;;3.00;99.90;;;;;;5091911;28;20043;-59
2024/01/13 05:43:14;;;;;;;11.02;4.88;;;3.70;99.90;;;;;;5097535;28;20063;-59
2024/01/13 05:45:40;;;;;;;12.88;5.15;;;3.60;99.90;;;;;;5054366;28;20137;-59
2024/01/13 05:48:06;;;;;;;14.18;5.32;;;3.30;99.90;;;;;;5062410;28;20096;-60
2024/01/13 05:50:32;;;;;;;12.73;4.93;;;3.20;99.90;;;;;;5015694;28;20043;-58
2024/01/13 05:52:58;;;;;;;14.93;4.75;;;3.40;99.90;;;;;;5022669;28;20526;-60
2024/01/13 05:55:24;;;;;;;14.15;4.85;;;3.40;99.90;;;;;;5097949;28;20046;-59
2024/01/13 05:57:50;;;;;;;15.55;4.72;;;3.60;99.90;;;;;;5063553;28;20492;-60
2024/01/13 06:00:16;;;;;;;13.27;4.55;;;2.80;99.90;;;;;;5081397;28;20069;-59
2024/01/13 06:02:43;;;;;;;14.57;4.72;;;3.10;99.90;;;;;;5081750;28;20067;-59
2024/01/13 06:05:09;;;;;;;12.48;4.28;;;2.80;99.90;;;;;;5015668;28;20043;-58
2024/01/13 06:07:35;;;;;;;14.30;4.13;;;3.60;99.90;;;;;;5068541;28;20364;-58
2024/01/13 06:10:01;;;;;;;11.07;4.15;;;2.90;99.90;;;;;;5091034;27;20031;-59
2024/01/13 06:12:28;;;;;;;9.32;3.67;;;3.50;99.90;;;;;;5064112;28;20104;-59
2024/01/13 06:14:55;;;;;;;10.02;3.60;;;3.20;99.90;;;;;;5065264;28;20128;-59
2024/01/13 06:17:20;;;;;;;12.90;4.10;;;3.00;99.90;;;;;;5090312;28;20118;-59
2024/01/13 06:19:47;;;;;;;13.82;4.10;;;3.20;99.90;;;;;;5063765;28;20071;-59
2024/01/13 06:22:13;;;;;;;18.15;4.22;;;3.70;99.90;;;;;;5073875;28;20363;-58
2024/01/13 06:24:38;;;;;;;15.60;4.20;;;3.30;99.90;;;;;;5095086;28;20039;-59
2024/01/13 06:27:04;;;;;;;16.40;4.93;;;3.60;99.90;;;;;;5079543;28;20036;-59
2024/01/13 06:29:30;;;;;;;14.45;4.60;;;2.80;99.90;;;;;;5065386;28;20035;-59
2024/01/13 06:31:55;;;;;;;14.88;4.95;;;2.90;99.90;;;;;;5066353;28;20044;-59
2024/01/13 06:34:21;;;;;;;17.27;5.63;;;3.50;99.90;;;;;;5076735;28;20457;-59
2024/01/13 06:36:47;;;;;;;14.57;4.88;;;3.40;99.90;;;;;;5087265;28;20058;-59
2024/01/13 06:39:12;;;;;;;12.57;3.97;;;3.70;99.90;;;;;;5066405;28;20047;-59
2024/01/13 06:41:38;;;;;;;13.48;4.85;;;2.90;99.90;;;;;;5077275;28;20467;-61
2024/01/13 06:44:04;;;;;;;15.80;4.13;;;3.50;99.90;;;;;;5086632;28;20040;-59
2024/01/13 06:46:30;;;;;;;14.65;4.72;;;3.70;99.90;;;;;;5054029;28;20486;-60
2024/01/13 06:48:55;;;;;;;16.98;4.60;;;3.30;99.90;;;;;;5080965;28;20031;-58
2024/01/13 06:51:21;;;;;;;13.75;4.07;;;3.50;99.90;;;;;;5086849;28;20090;-59
2024/01/13 06:53:47;;;;;;;12.10;3.95;;;2.90;99.90;;;;;;5086819;28;20028;-59
2024/01/13 06:56:12;;;;;;;13.13;4.20;;;3.70;99.90;;;;;;5066050;28;20045;-59
2024/01/13 06:58:38;;;;;;;14.00;4.05;;;3.20;99.90;;;;;;5064404;28;20035;-59
2024/01/13 07:01:04;;;;;;;11.20;3.78;;;3.10;99.90;;;;;;5083698;28;20044;-59
2024/01/13 07:03:30;;;;;;;14.23;4.30;;;3.30;99.90;;;;;;5090535;28;20058;-59
2024/01/13 07:05:56;;;;;;;10.45;3.45;;;3.00;99.90;;;;;;5052396;28;20031;-59
2024/01/13 07:08:22;;;;;;;9.02;3.70;;;3.40;99.90;;;;;;5074284;28;20048;-58
2024/01/13 07:10:53;;;;;;;10.43;3.55;;;3.00;99.90;;;;;;5071543;28;20042;-59
2024/01/13 07:13:19;;;;;;;15.13;4.60;;;3.30;99.90;;;;;;5070683;28;20116;-59
2024/01/13 07:15:45;;;;;;;15.75;4.47;;;3.50;99.90;;;;;;5014974;28;20085;-59
2024/01/13 07:18:10;;;;;;;11.32;4.20;;;3.40;99.90;;;;;;4995929;28;20489;-58
2024/01/13 07:20:36;;;;;;;11.77;4.10;;;3.40;99.90;;;;;;5055100;28;20035;-59
2024/01/13 07:23:02;;;;;;;11.45;4.55;;;3.80;99.90;;;;;;5063048;28;20177;-59
2024/01/13 07:25:30;;;;;;;14.82;4.28;;;3.50;99.90;;;;;;5074752;28;20052;-59
2024/01/13 07:27:56;;;;;;;12.80;4.15;;;3.80;99.90;;;;;;5016778;28;20112;-59
2024/01/13 07:30:22;;;;;;;11.73;4.10;;;3.80;99.90;;;;;;5083674;28;20038;-59
2024/01/13 07:32:48;;;;;;;12.80;3.95;;;3.60;99.90;;;;;;5069865;28;20040;-60
2024/01/13 07:35:13;;;;;;;12.20;4.50;;;3.90;99.90;;;;;;5017077;28;20306;-58
2024/01/13 07:37:39;;;;;;;17.83;5.07;;;3.50;99.90;;;;;;5063305;28;20046;-59
2024/01/13 07:40:06;;;;;;;13.57;5.53;;;3.10;99.90;;;;;;5061044;28;20108;-58
2024/01/13 07:42:32;;;;;;;18.23;6.20;;;3.00;99.90;;;;;;5068154;28;20100;-59
2024/01/13 07:44:58;;;;;;;27.88;9.80;;;3.90;99.90;;;;;;5075195;28;20120;-59
2024/01/13 07:47:24;;;;;;;27.73;10.45;;;3.40;99.90;;;;;;5010863;28;20128;-59
2024/01/13 07:49:49;;;;;;;35.42;10.43;;;3.20;99.90;;;;;;5079738;28;20053;-59
2024/01/13 07:52:15;;;;;;;15.23;6.38;;;3.70;99.90;;;;;;5085710;28;20043;-60
2024/01/13 07:54:41;;;;;;;13.50;5.25;;;3.30;99.90;;;;;;5060772;28;20148;-60
2024/01/13 07:57:06;;;;;;;10.80;4.07;;;3.20;99.90;;;;;;5083780;28;20107;-59
2024/01/13 07:59:32;;;;;;;12.07;4.65;;;3.30;99.90;;;;;;5094842;28;20055;-59
2024/01/13 08:01:58;;;;;;;14.43;4.32;;;3.80;99.90;;;;;;5061409;28;20046;-59
2024/01/13 08:04:23;;;;;;;14.95;4.32;;;3.90;99.90;;;;;;5070672;28;20088;-59
2024/01/13 08:06:49;;;;;;;15.93;4.65;;;3.80;99.90;;;;;;5063072;28;20054;-59
2024/01/13 08:09:17;;;;;;;23.02;6.90;;;3.60;99.90;;;;;;5074615;28;20035;-59
2024/01/13 08:11:43;;;;;;;24.63;7.32;;;4.10;99.90;;;;;;5035879;28;20046;-58
2024/01/13 08:14:08;;;;;;;27.70;8.65;;;4.00;99.90;;;;;;5026368;28;20470;-59
2024/01/13 08:16:34;;;;;;;27.60;9.70;;;3.40;99.90;;;;;;5025759;28;20022;-59
2024/01/13 08:19:02;;;;;;;27.00;11.25;;;3.60;99.90;;;;;;5022604;28;20039;-60
2024/01/13 08:21:28;;;;;;;39.05;11.55;;;3.80;99.90;;;;;;5028648;28;20030;-58
2024/01/13 08:23:54;;;;;;;33.67;11.23;;;3.90;99.90;;;;;;5026339;28;20038;-60
2024/01/13 08:26:19;;;;;;;32.80;11.52;;;4.20;99.90;;;;;;5012646;28;20098;-59
2024/01/13 08:28:45;;;;;;;36.63;12.45;;;3.80;99.90;;;;;;5017537;28;20455;-60
2024/01/13 08:31:11;;;;;;;41.78;12.70;;;4.10;99.90;;;;;;5028223;28;20028;-60
2024/01/13 08:33:38;;;;;;;36.65;13.13;;;3.50;99.90;;;;;;5029462;28;20042;-59
2024/01/13 08:36:04;;;;;;;40.70;15.90;;;3.70;99.90;;;;;;5032559;28;20096;-60
2024/01/13 08:38:30;;;;;;;47.47;16.92;;;3.30;99.90;;;;;;5027189;28;20120;-58
2024/01/13 08:40:55;;;;;;;56.20;21.17;;;3.40;99.90;;;;;;5029231;28;20121;-60
2024/01/13 08:43:21;;;;;;;64.03;20.90;;;3.70;99.90;;;;;;5032591;28;20050;-58
2024/01/13 08:45:47;;;;;;;63.10;20.98;;;4.10;99.90;;;;;;5031979;28;20057;-58
2024/01/13 08:48:12;;;;;;;52.75;18.70;;;3.70;99.90;;;;;;5028608;28;20053;-59
2024/01/13 08:50:38;;;;;;;44.20;17.70;;;4.00;99.90;;;;;;5030318;28;20167;-59
2024/01/13 08:53:05;;;;;;;54.47;18.83;;;3.70;99.90;;;;;;5030405;28;20049;-59
2024/01/13 08:55:31;;;;;;;48.60;18.15;;;3.50;99.90;;;;;;5026644;28;20034;-59
2024/01/13 08:57:57;;;;;;;49.47;18.63;;;3.70;99.90;;;;;;5021544;28;20038;-59
2024/01/13 09:00:23;;;;;;;46.97;18.13;;;3.60;99.90;;;;;;5005578;28;20055;-59
2024/01/13 09:02:48;;;;;;;49.65;17.48;;;3.90;99.90;;;;;;4994336;28;20061;-59
2024/01/13 09:05:14;;;;;;;48.38;18.20;;;3.60;99.90;;;;;;5011802;28;20042;-59
2024/01/13 09:07:40;;;;;;;55.33;18.73;;;4.20;99.90;;;;;;5019609;28;20049;-58
2024/01/13 09:10:06;;;;;;;57.17;18.73;;;4.10;99.90;;;;;;5016667;28;20180;-58
2024/01/13 09:12:32;;;;;;;50.22;19.98;;;4.20;99.90;;;;;;5018943;28;20046;-58
2024/01/13 09:14:57;;;;;;;51.40;19.20;;;4.00;99.90;;;;;;5025897;28;20401;-58
2024/01/13 09:17:23;;;;;;;51.40;19.70;;;4.00;99.90;;;;;;5022015;28;20087;-60
2024/01/13 09:19:49;;;;;;;58.63;20.05;;;4.10;99.90;;;;;;5017298;28;20034;-58
2024/01/13 09:22:14;;;;;;;50.30;20.63;;;3.50;99.90;;;;;;5025701;28;20043;-59
2024/01/13 09:24:43;;;;;;;59.88;22.92;;;4.20;99.90;;;;;;5022007;28;20402;-58
2024/01/13 09:27:09;;;;;;;58.10;22.85;;;3.60;99.90;;;;;;5021080;28;20034;-59
2024/01/13 09:29:35;;;;;;;56.22;21.77;;;4.30;99.90;;;;;;5024942;28;20266;-59
2024/01/13 09:32:04;;;;;;;60.05;23.10;;;3.60;99.90;;;;;;5011851;28;20042;-59
2024/01/13 09:34:30;;;;;;;60.80;22.67;;;3.80;99.90;;;;;;5017014;28;20509;-60
2024/01/13 09:36:55;;;;;;;52.85;22.13;;;4.30;99.90;;;;;;5022573;28;20037;-59
2024/01/13 09:39:21;;;;;;;52.58;21.58;;;3.40;99.90;;;;;;5022651;28;20117;-59
2024/01/13 09:41:47;;;;;;;52.58;22.05;;;4.00;99.90;;;;;;5021471;28;20030;-59
2024/01/13 09:44:21;;;;;;;49.13;21.70;;;3.30;99.90;;;;;;5017538;28;20478;-60
2024/01/13 09:46:48;;;;;;;53.15;21.02;;;3.90;99.90;;;;;;5023078;28;20538;-60
2024/01/13 09:49:17;;;;;;;54.90;22.67;;;3.30;99.90;;;;;;5025735;28;20385;-58
2024/01/13 09:51:44;;;;;;;42.72;20.65;;;3.40;99.90;;;;;;5015251;28;20381;-59
2024/01/13 09:54:15;;;;;;;47.58;20.25;;;4.20;99.90;;;;;;5015549;28;20074;-59
2024/01/13 09:56:47;;;;;;;51.17;20.95;;;3.30;99.90;;;;;;5022062;28;20032;-59
2024/01/13 09:59:14;;;;;;;55.35;23.13;;;4.00;99.90;;;;;;5020494;28;23648;-59
2024/01/13 10:01:40;;;;;;;59.10;25.23;;;3.90;99.90;;;;;;5020645;28;20052;-60
2024/01/13 10:04:07;;;;;;;50.83;22.92;;;4.40;99.90;;;;;;4999355;28;20463;-59
2024/01/13 10:06:33;;;;;;;54.15;24.58;;;4.10;99.90;;;;;;4985700;28;20042;-58
2024/01/13 10:09:00;;;;;;;61.63;28.02;;;4.40;99.90;;;;;;5021532;28;20497;-59
2024/01/13 10:11:26;;;;;;;69.97;29.50;;;3.70;99.90;;;;;;5025723;28;20036;-59
2024/01/13 10:14:01;;;;;;;90.78;37.97;;;3.40;99.90;;;;;;5030169;28;20042;-58
2024/01/13 10:16:29;;;;;;;98.53;40.38;;;3.60;99.90;;;;;;5020226;28;20120;-58
2024/01/13 10:18:58;;;;;;;73.68;32.60;;;4.70;99.90;;;;;;5031113;28;20396;-59
2024/01/13 10:21:24;;;;;;;61.83;27.15;;;3.70;99.90;;;;;;5028121;28;20034;-58
2024/01/13 10:23:53;;;;;;;64.03;27.85;;;4.20;99.90;;;;;;5017667;28;20439;-58
2024/01/13 10:26:18;;;;;;;61.80;28.55;;;3.80;99.90;;;;;;5030568;28;20030;-58
2024/01/13 10:28:44;;;;;;;64.63;27.92;;;3.50;99.90;;;;;;5035232;28;20485;-60
2024/01/13 10:31:10;;;;;;;68.97;30.02;;;3.90;99.90;;;;;;5030872;28;20038;-60
2024/01/13 10:33:38;;;;;;;70.50;31.60;;;4.10;99.90;;;;;;5022526;28;20050;-60
2024/01/13 10:36:05;;;;;;;78.43;34.42;;;3.40;99.90;;;;;;5000429;28;20095;-61
2024/01/13 10:38:31;;;;;;;83.90;34.08;;;3.40;99.90;;;;;;5021575;28;20046;-60
2024/01/13 10:40:57;;;;;;;74.15;35.05;;;4.40;99.90;;;;;;5021660;28;20026;-59
2024/01/13 10:43:25;;;;;;;84.03;35.95;;;3.40;99.90;;;;;;5030295;28;20038;-60
2024/01/13 10:45:56;;;;;;;83.10;36.05;;;4.30;99.90;;;;;;5016993;28;20041;-59
2024/01/13 10:48:36;;;;;;;75.38;35.22;;;3.80;99.90;;;;;;5029954;28;20091;-60
2024/01/13 10:51:02;;;;;;;77.72;32.53;;;4.70;99.90;;;;;;5032799;28;20085;-60
2024/01/13 10:53:29;;;;;;;75.32;33.83;;;4.50;99.90;;;;;;5018571;28;20038;-57
2024/01/13 10:55:56;;;;;;;76.35;33.65;;;3.70;99.90;;;;;;5011427;28;20030;-59
2024/01/13 10:58:24;;;;;;;79.22;32.75;;;4.20;99.90;;;;;;5025314;28;20105;-58
2024/01/13 11:00:50;;;;;;;77.15;32.60;;;3.80;99.90;;;;;;5019061;28;20110;-60
2024/01/13 11:03:18;;;;;;;79.63;32.42;;;4.70;99.90;;;;;;5071614;28;20040;-61
2024/01/13 11:05:43;;;;;;;72.40;32.58;;;3.80;99.90;;;;;;5102741;28;20044;-59
2024/01/13 11:08:10;;;;;;;67.63;31.40;;;3.90;99.90;;;;;;5059885;28;20054;-59
2024/01/13 11:10:42;;;;;;;75.90;34.63;;;4.40;99.90;;;;;;5108446;28;20043;-59
2024/01/13 11:13:08;;;;;;;66.95;30.38;;;4.00;99.90;;;;;;5106964;28;20040;-59
2024/01/13 11:15:43;;;;;;;82.03;33.42;;;3.60;99.90;;;;;;5101046;28;20179;-59
2024/01/13 11:18:13;;;;;;;75.82;31.60;;;3.90;99.90;;;;;;5105194;28;20027;-59
2024/01/13 11:21:00;;;;;;;75.00;33.92;;;3.80;99.90;;;;;;5099033;28;20039;-58
2024/01/13 11:23:26;;;;;;;84.80;34.10;;;3.70;99.90;;;;;;5103580;28;20038;-58
2024/01/13 11:25:51;;;;;;;81.65;36.30;;;4.10;99.90;;;;;;5111849;28;20031;-59
2024/01/13 11:28:17;;;;;;;83.13;37.17;;;3.90;99.90;;;;;;5112086;28;20043;-60
2024/01/13 11:30:46;;;;;;;79.88;36.83;;;3.70;99.90;;;;;;5112115;28;20041;-60
2024/01/13 11:33:18;;;;;;;79.78;34.63;;;4.10;99.90;;;;;;5081957;28;20041;-58
2024/01/13 11:35:46;;;;;;;75.63;33.17;;;4.20;99.90;;;;;;5034584;28;20025;-58
2024/01/13 11:38:13;;;;;;;74.85;36.08;;;4.80;99.90;;;;;;5028698;28;20087;-59
2024/01/13 11:40:46;;;;;;;75.90;33.85;;;3.80;99.90;;;;;;5091771;28;20035;-59
2024/01/13 11:43:22;;;;;;;69.35;32.65;;;4.00;99.90;;;;;;5111650;28;20130;-59
2024/01/13 11:45:50;;;;;;;72.82;32.10;;;3.90;99.90;;;;;;5111736;28;20036;-58
2024/01/13 11:48:37;;;;;;;75.50;32.03;;;3.90;99.90;;;;;;5111827;28;20043;-59
2024/01/13 11:51:08;;;;;;;65.97;31.05;;;4.00;99.90;;;;;;5031135;28;20062;-59
2024/01/13 11:53:42;;;;;;;67.32;30.85;;;4.80;99.90;;;;;;5032710;28;21511;-59
2024/01/13 11:56:13;;;;;;;65.82;30.52;;;4.50;99.90;;;;;;5019780;28;20044;-59
2024/01/13 11:58:40;;;;;;;64.47;32.20;;;5.00;99.90;;;;;;5010140;28;20027;-59
2024/01/13 12:01:08;;;;;;;66.65;29.85;;;4.90;99.90;;;;;;5021890;28;20068;-60
2024/01/13 12:03:34;;;;;;;68.05;29.92;;;4.30;99.90;;;;;;5021558;28;20968;-61
2024/01/13 12:06:03;;;;;;;71.00;31.05;;;4.40;99.90;;;;;;5020666;28;20169;-59
2024/01/13 12:08:29;;;;;;;64.05;28.85;;;4.50;99.90;;;;;;5009798;28;20066;-60
2024/01/13 12:10:55;;;;;;;61.00;29.35;;;4.40;99.90;;;;;;4987493;28;20057;-61
2024/01/13 12:13:22;;;;;;;59.30;29.30;;;5.10;99.90;;;;;;5024096;28;20042;-60
2024/01/13 12:15:48;;;;;;;59.45;28.77;;;4.90;99.90;;;;;;5026747;28;20042;-61
2024/01/13 12:18:20;;;;;;;61.90;29.73;;;5.10;99.90;;;;;;5018663;28;20148;-60
2024/01/13 12:20:50;;;;;;;63.38;29.45;;;4.70;99.90;;;;;;4997862;28;20385;-56
2024/01/13 12:23:17;;;;;;;56.70;26.40;;;4.60;99.90;;;;;;5022105;28;20489;-59
2024/01/13 12:25:43;;;;;;;53.78;27.02;;;5.20;99.90;;;;;;5018800;28;20947;-57
2024/01/13 12:28:08;;;;;;;52.63;26.73;;;5.20;99.90;;;;;;5014507;28;20108;-58
2024/01/13 12:30:35;;;;;;;59.85;27.55;;;4.50;99.90;;;;;;5020447;28;20095;-58
2024/01/13 12:33:04;;;;;;;56.55;27.90;;;4.50;99.90;;;;;;4999362;28;20046;-57
2024/01/13 12:35:30;;;;;;;57.97;28.65;;;4.60;99.90;;;;;;5018940;28;20034;-58
2024/01/13 12:37:56;;;;;;;62.15;27.98;;;4.80;99.90;;;;;;5024559;28;20037;-58